Lake View, Alabama
Current Conditions -  °F | °C
As of 12:33 AM on Saturday 20 Dec 2014 (Local Time) from KEET Reporting Station
Light Rain Light Rain  
Wind Chill: 42°   Ceiling: 4100
Heat Index: 42°   Visibility: 5mi
Dew Point: 40°   Wind: 0mph
Humidity: 92%   Direction: NA
Pressure: 30.14"   Gusts: NA
Location:  33.3452°N, 87.0035°W
Report Text: KEET 200633Z AUTO 00000KT 5SM -RA BR FEW008 BKN041 OVC050 06/04 A3014 RMK AO2 P0004 T00560044
Loading
Personal Weather Stations






























Interactive Weather Map New forecast layout! Learn more

10-Day Weather Forecast

Advertisements
Track Severe Weather on mobile